ADDS METAR Data INFO
IDs: Format: Raw Decoded Include TAF

Data at: 0457 UTC 23 May 2017

KODO 230453Z AUTO 19006KT 10SM CLR 17/13 A2995 RMK AO2 SLP110 T01720133 $
KODO 230353Z AUTO 29007KT 10SM CLR 19/12 A2994 RMK AO2 PK WND 22029/0321 WSHFT 0326 RAE38 TSE0257 SLP105 P0004 T01890117
KODO 230346Z AUTO 31008KT 10SM FEW080 FEW090 SCT110 20/11 A2993 RMK AO2 PK WND 22029/0321 WSHFT 0326 LTG DSNT E RAE38 TSE0257 P0004 T02000111
KODO 230335Z AUTO 26013G20KT 10SM -RA BKN085 BKN110 21/09 A2993 RMK AO2 PK WND 22029/0321 WSHFT 0315 LTG DSNT E AND SE TSE0257 P0004 T02110094
KODO 230317Z AUTO 18010G17KT 120V230 10SM -RA BKN080 OVC100 19/12 A2997 RMK AO2 LTG DSNT NE-S TSE0257 PRESFR P0003 T01890117
KODO 230303Z AUTO 12004KT 9SM VCTS -RA BKN070 OVC085 16/13 A3007 RMK AO2 LTG DSNT NE-S TSE0257 PRESFR P0001 T01610133
KODO 230253Z AUTO 11005KT 8SM -TSRA FEW042 BKN070 OVC085 16/13 A3008 RMK AO2 PK WND 31040/0221 LTG DSNT ALQDS RAB0154 TSB16 SLP159 P0024 60024 T01560133 53040
KODO 230238Z AUTO VRB06KT 3SM TSRA BKN044 BKN065 OVC085 16/13 A3010 RMK AO2 PK WND 31040/0221 LTG DSNT ALQDS RAB0154 TSB16 P0019 T01560128
KODO 230231Z AUTO 33006G37KT 1 3/4SM +TSRA BKN037 BKN055 OVC090 16/13 A3010 RMK AO2 PK WND 31040/0221 LTG DSNT ALQDS RAB0154 TSB16 P0015 T01560128
KODO 230222Z AUTO 31026G40KT 6SM TSRA FEW038 BKN085 OVC120 19/16 A3011 RMK AO2 PK WND 31040/0221 LTG DSNT ALQDS RAB0154 TSB16 PRESRR P0003 T01940156
KODO 230212Z AUTO 29010KT 10SM VCTS -RA SCT085 BKN120 22/16 A3005 RMK AO2 LTG DSNT SW-N RAB0154 PRESRR P0000 T02220161
KODO 230153Z AUTO 00000KT 10SM FEW100 SCT120 23/16 A3000 RMK AO2 LTG DSNT W-N PRESRR SLP124 T02280156
KODO 230053Z AUTO 07010KT 10SM CLR 23/14 A2994 RMK AO2 RAB02E13 SLP103 P0000 T02330139
KODO 222353Z AUTO 18003KT 10SM FEW120 24/14 A2995 RMK AO2 LTG DSNT SW SLP108 T02390139 10256 20189 55007
KODO 222253Z AUTO 07004KT 10SM CLR 24/14 A2994 RMK AO2 SLP102 T02440139
KODO 222153Z AUTO VRB04KT 10SM CLR 25/13 A2994 RMK AO2 SLP103 T02500133
KODO 222053Z AUTO 07006KT 10SM SCT030 24/14 A2998 RMK AO2 SLP115 T02440139 58024
KODO 222038Z AUTO VRB04KT 10SM BKN030 23/14 A2999 RMK AO2 T02280139
KODO 221953Z AUTO 00000KT 10SM BKN025 23/14 A3002 RMK AO2 SLP130 T02280144
KODO 221853Z AUTO 00000KT 10SM FEW016 OVC023 21/14 A3004 RMK AO2 SLP139 T02060144
KODO 221823Z AUTO 14005KT 10SM OVC016 19/15 A3005 RMK AO2 T01940150
KODO 221753Z AUTO 13007KT 10SM OVC011 19/15 A3006 RMK AO2 SLP148 T01890150 10189 20144 56013
KODO 221720Z AUTO 12005KT 10SM OVC010 18/14 A3006 RMK AO2 T01830144
KODO 221653Z AUTO 14009KT 10SM OVC006 18/15 A3006 RMK AO2 CIG 005V010 SLP151 T01830150
KODO 221553Z AUTO 10006KT 7SM OVC005 17/14 A3008 RMK AO2 SLP159 T01670144
KODO 221502Z AUTO 11007KT 3SM BR OVC005 16/15 A3010 RMK AO2 CIG 003V007 T01610150
KODO 221453Z AUTO 10008KT 2SM BR OVC004 16/15 A3010 RMK AO2 CIG 003V007 SLP163 T01560150 51004
KODO 221424Z AUTO 09006KT 1 1/2SM BR OVC004 16/14 A3010 RMK AO2 T01560144
KODO 221411Z AUTO 09006KT 2 1/2SM BR OVC003 16/14 A3010 RMK AO2 T01560144
KODO 221353Z AUTO 07006KT 4SM BR OVC003 16/14 A3010 RMK AO2 SLP161 T01560144
KODO 221314Z AUTO 06005KT 3SM BR OVC002 15/14 A3009 RMK AO2 T01500144
KODO 221253Z AUTO 09005KT 2SM BR OVC003 15/14 A3009 RMK AO2 SLP159 T01500139
KODO 221243Z AUTO 09005KT 2SM BR OVC003 15/14 A3008 RMK AO2 T01500144
KODO 221217Z AUTO 12007KT 1 1/4SM BR OVC003 14/14 A3008 RMK AO2 T01440139
KODO 221210Z AUTO 13006KT 1 3/4SM BR OVC005 15/14 A3008 RMK AO2 T01500139
KODO 221153Z AUTO 13006KT 6SM BR OVC005 15/13 A3008 RMK AO2 SLP155 70002 T01500133 10156 20144 56008
KODO 221053Z AUTO 12009KT 10SM OVC007 15/13 A3009 RMK AO2 SLP156 T01500128
KODO 220953Z AUTO 12010KT 10SM OVC008 15/13 A3009 RMK AO2 SLP156 T01500128
KODO 220942Z AUTO 12009KT 10SM OVC008 16/13 A3009 RMK AO2 T01560128
KODO 220922Z AUTO 12007KT 10SM OVC011 16/13 A3011 RMK AO2 CIG 008V014 T01560128
KODO 220853Z AUTO 13007KT 10SM OVC009 16/13 A3011 RMK AO2 CIG 008V013 SLP167 T01560128 58002
KODO 220753Z AUTO 12009KT 10SM OVC008 15/13 A3011 RMK AO2 CIG 007V011 SLP168 T01500133
KODO 220719Z AUTO 12010KT 10SM OVC005 15/13 A3013 RMK AO2 T01500133
KODO 220653Z AUTO 11009KT 10SM OVC004 15/13 A3012 RMK AO2 SLP170 T01500133
KODO 220634Z AUTO 12008KT 10SM BKN004 14/13 A3012 RMK AO2 T01440133
KODO 220625Z AUTO 12007KT 10SM SCT004 14/13 A3012 RMK AO2 T01440133
KODO 220553Z AUTO 12007KT 10SM CLR 14/13 A3012 RMK AO2 SLP169 T01440128 10200 20144 402220144 50005
KODO 220453Z AUTO 11009KT 10SM CLR 15/12 A3014 RMK AO2 SLP173 T01500122
KODO 220353Z AUTO 11006KT 10SM CLR 16/13 A3013 RMK AO2 SLP168 T01560128
KODO 220253Z AUTO 11007KT 10SM CLR 17/13 A3010 RMK AO2 SLP160 T01670133 53006
KODO 220153Z AUTO 13007KT 10SM CLR 18/13 A3008 RMK AO2 SLP153 T01830133
KODO 220053Z AUTO 11010KT 10SM CLR 19/13 A3008 RMK AO2 SLP151 T01940133
KODO 212353Z AUTO 12009KT 10SM CLR 20/13 A3009 RMK AO2 SLP154 60002 T02000133 10217 20172 58009
KODO 212253Z AUTO 14013KT 10SM FEW023 20/13 A3010 RMK AO2 SLP158 T02000133
KODO 212227Z AUTO 12013G20KT 10SM SCT024 BKN100 20/13 A3010 RMK AO2 T02000128
KODO 212153Z AUTO 11016KT 10SM OVC027 20/12 A3011 RMK AO2 RAE04 SLP162 P0000 T02000117
KODO 212119Z AUTO 09012KT 10SM BKN029 BKN110 20/12 A3013 RMK AO2 RAE04 P0000 T02000117
KODO 212053Z AUTO 12014KT 10SM -RA FEW038 SCT065 OVC100 19/12 A3012 RMK AO2 LTG DSNT N RAB1954 SLP164 P0001 60002 T01890122 58007
KODO 211953Z AUTO 12009KT 10SM FEW070 OVC100 18/13 A3013 RMK AO2 PK WND 12027/1901 LTG DSNT N AND NE RAB1858E52 SLP171 P0001 T01780128
KODO 211937Z AUTO 12008KT 10SM -RA FEW070 OVC100 18/13 A3014 RMK AO2 PK WND 12027/1901 LTG DSNT N AND NW RAB1858 P0000 T01780128
KODO 211906Z AUTO 12018G27KT 9SM VCTS -RA SCT032 BKN046 OVC100 18/12 A3014 RMK AO2 PK WND 12027/1901 LTG DSNT SE AND NW RAB1858 P0000 T01830117
KODO 211853Z AUTO 12019G24KT 10SM VCTS OVC029 19/11 A3015 RMK AO2 LTG DSNT ALQDS TSB36E51 SLP174 T01940106
KODO 211842Z AUTO 15015KT 10SM TS OVC029 19/11 A3016 RMK AO2 LTG DSNT ALQDS TSB36 T01940106
KODO 211829Z AUTO 13013KT 10SM VCTS OVC025 19/11 A3016 RMK AO2 LTG DSNT ALQDS T01940106
KODO 211753Z AUTO 11017G23KT 10SM BKN029 20/11 A3014 RMK AO2 PK WND 11026/1700 LTG DSNT S-W SLP171 T02000111 10222 20178 58008
KODO 211739Z AUTO 12021G26KT 10SM OVC029 21/12 A3015 RMK AO2 PK WND 11026/1700 LTG DSNT S AND SW T02060117
KODO 211723Z AUTO 11019G24KT 10SM BKN030 OVC037 21/12 A3016 RMK AO2 PK WND 11026/1700 LTG DSNT S-W T02110117


Page loaded:  04:57 UTC  |   09:57 PM Pacific  |   10:57 PM Mountain  |   11:57 PM Central  |   12:57 AM Eastern

 

ADVISORIES

FORECASTS

FORECASTS

OBSERVATIONS

USER TOOLS

ABOUT US